Time;durP1;ratioP1;P1;durP2;ratioP2;P2;SDS_P1;SDS_P2;PMS_P1;PMS_P2;Temp;Humidity;BMP_temperature;BMP_pressure;BME280_temperature;BME280_humidity;BME280_pressure;Samples;Min_cycle;Max_cycle;Signal;HPM_P1;HPM_P2
2024/02/03 00:02:12;;;;;;;46.42;9.77;;;9.60;99.90;;;;;;5088753;28;20050;-50
2024/02/03 00:04:37;;;;;;;52.33;9.68;;;9.60;99.90;;;;;;5087481;28;20473;-50
2024/02/03 00:07:03;;;;;;;41.78;9.63;;;9.50;99.90;;;;;;5087320;28;20095;-50
2024/02/03 00:09:29;;;;;;;32.58;8.45;;;9.50;99.90;;;;;;5087100;28;20028;-50
2024/02/03 00:11:54;;;;;;;32.70;8.68;;;9.50;99.90;;;;;;5088618;28;20041;-50
2024/02/03 00:14:20;;;;;;;48.78;9.50;;;9.50;99.90;;;;;;5088656;28;20486;-50
2024/02/03 00:16:46;;;;;;;48.85;10.13;;;9.50;99.90;;;;;;5088651;28;20025;-50
2024/02/03 00:19:11;;;;;;;46.20;8.98;;;9.50;99.90;;;;;;5088225;28;20461;-50
2024/02/03 00:21:37;;;;;;;47.60;8.23;;;9.50;99.90;;;;;;5087296;28;20025;-50
2024/02/03 00:24:03;;;;;;;46.42;9.32;;;9.50;99.90;;;;;;5087062;28;20036;-50
2024/02/03 00:26:28;;;;;;;33.80;8.45;;;9.50;99.90;;;;;;5087137;28;20499;-50
2024/02/03 00:28:54;;;;;;;37.00;7.97;;;9.40;99.90;;;;;;5088409;28;20037;-50
2024/02/03 00:31:20;;;;;;;35.28;8.23;;;9.40;99.90;;;;;;5086964;28;20053;-50
2024/02/03 00:33:45;;;;;;;41.45;8.57;;;9.30;99.90;;;;;;5088207;28;20029;-50
2024/02/03 00:36:23;;;;;;;38.88;8.73;;;9.40;99.90;;;;;;5086846;28;20102;-50
2024/02/03 00:38:48;;;;;;;43.15;8.50;;;9.40;99.90;;;;;;5088020;28;20492;-50
2024/02/03 00:41:14;;;;;;;35.05;8.38;;;9.30;99.90;;;;;;5086594;28;20067;-50
2024/02/03 00:43:40;;;;;;;45.50;8.82;;;9.30;99.90;;;;;;5086513;28;20033;-50
2024/02/03 00:46:05;;;;;;;26.02;7.07;;;9.30;99.90;;;;;;5087982;28;20048;-50
2024/02/03 00:48:31;;;;;;;22.42;7.10;;;9.30;99.90;;;;;;5086496;28;20029;-50
2024/02/03 00:50:56;;;;;;;32.20;6.97;;;9.30;99.90;;;;;;5087679;28;20093;-50
2024/02/03 00:53:22;;;;;;;31.83;7.85;;;9.20;99.90;;;;;;5086516;28;20036;-50
2024/02/03 00:55:48;;;;;;;37.25;8.63;;;9.20;99.90;;;;;;5086301;28;20020;-50
2024/02/03 00:58:13;;;;;;;37.45;7.20;;;9.20;99.90;;;;;;5086347;28;20033;-51
2024/02/03 01:00:39;;;;;;;37.10;8.00;;;9.20;99.90;;;;;;5087645;28;20547;-51
2024/02/03 01:03:04;;;;;;;32.40;7.85;;;9.20;99.90;;;;;;5087858;28;20028;-50
2024/02/03 01:05:30;;;;;;;29.88;7.03;;;9.20;99.90;;;;;;5087401;28;20028;-50
2024/02/03 01:07:56;;;;;;;25.80;7.85;;;9.10;99.90;;;;;;5087428;28;20032;-50
2024/02/03 01:10:22;;;;;;;42.10;7.70;;;9.10;99.90;;;;;;5086060;28;20040;-50
2024/02/03 01:12:47;;;;;;;46.42;8.40;;;9.10;99.90;;;;;;5069320;28;20032;-50
2024/02/03 01:15:13;;;;;;;32.03;7.25;;;9.10;99.90;;;;;;5086290;28;20033;-50
2024/02/03 01:17:39;;;;;;;23.27;6.85;;;9.10;99.90;;;;;;5086266;28;20029;-50
2024/02/03 01:20:05;;;;;;;31.55;8.07;;;9.00;99.90;;;;;;5086514;28;20031;-50
2024/02/03 01:22:31;;;;;;;24.63;6.90;;;9.10;99.90;;;;;;5086966;28;20024;-50
2024/02/03 01:24:56;;;;;;;29.90;6.75;;;9.10;99.90;;;;;;5085931;28;20084;-50
2024/02/03 01:27:22;;;;;;;23.75;7.05;;;9.00;99.90;;;;;;5087169;28;20055;-50
2024/02/03 01:29:47;;;;;;;21.33;6.10;;;9.00;99.90;;;;;;5085939;28;20054;-50
2024/02/03 01:32:13;;;;;;;26.65;7.07;;;9.00;99.90;;;;;;5086957;28;20029;-50
2024/02/03 01:34:38;;;;;;;27.75;6.65;;;9.00;99.90;;;;;;5085684;28;20033;-51
2024/02/03 01:37:04;;;;;;;22.05;7.20;;;9.00;99.90;;;;;;5086795;28;20029;-50
2024/02/03 01:39:30;;;;;;;27.55;6.82;;;9.00;99.90;;;;;;5086735;28;20036;-50
2024/02/03 01:41:55;;;;;;;22.27;6.22;;;8.90;99.90;;;;;;5085538;28;20024;-50
2024/02/03 01:44:22;;;;;;;27.25;6.60;;;8.90;99.90;;;;;;5086864;28;20044;-50
2024/02/03 01:46:47;;;;;;;20.77;6.32;;;8.90;99.90;;;;;;5085535;28;20026;-50
2024/02/03 01:49:14;;;;;;;30.75;7.00;;;8.90;99.90;;;;;;5085427;28;20032;-50
2024/02/03 01:51:39;;;;;;;18.85;6.43;;;8.90;99.90;;;;;;5085449;28;20030;-50
2024/02/03 01:54:05;;;;;;;21.73;6.80;;;8.80;99.90;;;;;;5085672;28;20040;-50
2024/02/03 01:56:34;;;;;;;18.33;6.75;;;8.80;99.90;;;;;;5086100;28;20028;-50
2024/02/03 01:59:00;;;;;;;22.38;7.25;;;8.80;99.90;;;;;;5085229;28;20033;-50
2024/02/03 02:01:26;;;;;;;20.58;6.97;;;8.80;99.90;;;;;;5085402;28;20430;-50
2024/02/03 02:03:51;;;;;;;22.48;5.70;;;8.80;99.90;;;;;;5085312;28;20056;-51
2024/02/03 02:06:17;;;;;;;21.17;6.45;;;8.80;99.90;;;;;;5085350;28;20025;-50
2024/02/03 02:08:42;;;;;;;23.77;6.43;;;8.80;99.90;;;;;;5085328;28;20052;-50
2024/02/03 02:11:08;;;;;;;25.05;7.25;;;8.70;99.90;;;;;;5085220;28;20448;-50
2024/02/03 02:13:34;;;;;;;18.10;5.53;;;8.70;99.90;;;;;;5085170;28;20032;-50
2024/02/03 02:15:59;;;;;;;22.60;6.38;;;8.70;99.90;;;;;;5085017;28;20032;-50
2024/02/03 02:18:25;;;;;;;13.52;5.28;;;8.70;99.90;;;;;;5086387;28;20037;-50
2024/02/03 02:20:52;;;;;;;21.20;5.70;;;8.70;99.90;;;;;;5084921;28;20057;-50
2024/02/03 02:23:17;;;;;;;20.88;6.47;;;8.70;99.90;;;;;;5086317;28;20031;-50
2024/02/03 02:25:43;;;;;;;22.55;6.75;;;8.70;99.90;;;;;;5085074;28;20024;-50
2024/02/03 02:28:09;;;;;;;19.75;5.82;;;8.60;99.90;;;;;;5084761;28;20098;-50
2024/02/03 02:30:34;;;;;;;17.48;5.82;;;8.60;99.90;;;;;;5068114;28;20028;-50
2024/02/03 02:33:00;;;;;;;16.33;5.72;;;8.60;99.90;;;;;;5087964;28;20067;-50
2024/02/03 02:35:26;;;;;;;15.73;5.82;;;8.60;99.90;;;;;;5089015;28;20092;-50
2024/02/03 02:37:52;;;;;;;19.92;5.65;;;8.60;99.90;;;;;;5090382;28;20090;-50
2024/02/03 02:40:18;;;;;;;27.77;5.85;;;8.60;99.90;;;;;;5090044;28;20024;-50
2024/02/03 02:42:44;;;;;;;17.17;6.25;;;8.60;99.90;;;;;;5090310;28;20381;-50
2024/02/03 02:45:09;;;;;;;23.40;5.70;;;8.60;99.90;;;;;;5089009;28;20025;-50
2024/02/03 02:47:35;;;;;;;15.93;5.40;;;8.60;99.90;;;;;;5072097;28;20032;-50
2024/02/03 02:50:01;;;;;;;18.35;6.55;;;8.60;99.90;;;;;;5090170;28;20090;-50
2024/02/03 02:52:26;;;;;;;17.58;6.25;;;8.50;99.90;;;;;;5088914;28;20054;-50
2024/02/03 02:54:52;;;;;;;18.23;5.95;;;8.50;99.90;;;;;;5088807;28;20025;-50
2024/02/03 02:57:18;;;;;;;16.10;5.25;;;8.50;99.90;;;;;;5071843;28;20024;-50
2024/02/03 02:59:43;;;;;;;14.43;6.10;;;8.50;99.90;;;;;;5088737;28;20033;-50
2024/02/03 03:02:09;;;;;;;18.50;5.60;;;8.50;99.90;;;;;;5090000;28;20024;-50
2024/02/03 03:04:34;;;;;;;11.18;5.10;;;8.50;99.90;;;;;;5090498;28;20460;-50
2024/02/03 03:07:00;;;;;;;10.32;5.35;;;8.50;99.90;;;;;;5091036;28;20051;-50
2024/02/03 03:09:26;;;;;;;17.67;5.25;;;8.50;99.90;;;;;;5088624;28;20113;-50
2024/02/03 03:11:52;;;;;;;14.73;5.38;;;8.40;99.90;;;;;;5089860;28;20511;-50
2024/02/03 03:14:17;;;;;;;12.77;4.85;;;8.40;99.90;;;;;;5089941;28;20479;-50
2024/02/03 03:16:43;;;;;;;19.95;5.55;;;8.40;99.90;;;;;;5089492;28;20025;-50
2024/02/03 03:19:09;;;;;;;12.55;4.63;;;8.40;99.90;;;;;;5088420;28;20542;-50
2024/02/03 03:21:34;;;;;;;14.27;5.13;;;8.40;99.90;;;;;;5088230;28;20020;-50
2024/02/03 03:24:00;;;;;;;12.23;5.05;;;8.40;99.90;;;;;;5088259;28;20036;-50
2024/02/03 03:26:25;;;;;;;11.82;5.07;;;8.40;99.90;;;;;;5089383;28;20020;-50
2024/02/03 03:28:51;;;;;;;15.90;5.47;;;8.30;99.90;;;;;;5089428;28;20035;-50
2024/02/03 03:31:16;;;;;;;16.60;5.25;;;8.30;99.90;;;;;;5089464;28;20028;-50
2024/02/03 03:33:42;;;;;;;12.85;4.90;;;8.30;99.90;;;;;;5089484;28;20032;-50
2024/02/03 03:36:09;;;;;;;14.35;4.85;;;8.30;99.90;;;;;;5087780;28;20134;-50
2024/02/03 03:38:42;;;;;;;10.98;5.22;;;8.30;99.90;;;;;;5087914;28;20601;-50
2024/02/03 03:41:10;;;;;;;11.02;5.15;;;8.30;99.90;;;;;;5089178;28;20029;-50
2024/02/03 03:43:36;;;;;;;12.55;4.93;;;8.30;99.90;;;;;;5088523;28;20033;-50
2024/02/03 03:46:02;;;;;;;10.50;5.18;;;8.20;99.90;;;;;;5088006;28;20017;-50
2024/02/03 03:48:28;;;;;;;14.88;5.03;;;8.20;99.90;;;;;;5089192;28;20063;-50
2024/02/03 03:50:53;;;;;;;10.73;4.82;;;8.20;99.90;;;;;;5088867;28;20029;-50
2024/02/03 03:53:19;;;;;;;11.30;4.57;;;8.20;99.90;;;;;;5087555;28;20100;-50
2024/02/03 03:55:45;;;;;;;13.07;4.65;;;8.20;99.90;;;;;;5088952;28;20024;-50
2024/02/03 03:58:11;;;;;;;12.75;4.90;;;8.10;99.90;;;;;;5088880;28;20469;-50
2024/02/03 04:00:36;;;;;;;15.18;5.15;;;8.10;99.90;;;;;;5087596;28;20040;-50
2024/02/03 04:03:02;;;;;;;11.70;4.90;;;8.10;99.90;;;;;;5088839;28;20451;-50
2024/02/03 04:05:28;;;;;;;11.60;5.05;;;8.10;99.90;;;;;;5088647;28;20024;-50
2024/02/03 04:07:53;;;;;;;15.27;4.45;;;8.10;99.90;;;;;;5087218;28;20028;-47
2024/02/03 04:10:19;;;;;;;15.60;4.78;;;8.10;99.90;;;;;;5087623;28;20540;-48
2024/02/03 04:12:45;;;;;;;12.23;4.88;;;8.10;99.90;;;;;;5088690;28;20047;-48
2024/02/03 04:15:11;;;;;;;10.82;4.50;;;8.10;99.90;;;;;;5088696;28;20028;-48
2024/02/03 04:17:36;;;;;;;15.52;4.20;;;8.10;99.90;;;;;;5088408;28;20044;-48
2024/02/03 04:20:03;;;;;;;11.95;4.63;;;8.10;99.90;;;;;;5088506;28;20032;-48
2024/02/03 04:22:28;;;;;;;12.15;4.32;;;8.10;99.90;;;;;;5088358;28;20051;-48
2024/02/03 04:24:54;;;;;;;9.82;4.45;;;8.10;99.90;;;;;;5088520;28;20029;-48
2024/02/03 04:27:20;;;;;;;14.00;4.45;;;8.10;99.90;;;;;;5088753;28;20027;-48
2024/02/03 04:29:45;;;;;;;11.48;4.13;;;8.00;99.90;;;;;;5056154;28;20029;-47
2024/02/03 04:32:14;;;;;;;9.25;4.05;;;8.00;99.90;;;;;;5066119;28;20044;-48
2024/02/03 04:34:40;;;;;;;11.40;4.13;;;8.00;99.90;;;;;;5065714;28;20036;-50
2024/02/03 04:37:05;;;;;;;9.07;4.97;;;8.00;99.90;;;;;;5066844;28;20037;-50
2024/02/03 04:39:31;;;;;;;13.43;4.30;;;7.90;99.90;;;;;;5065574;28;20031;-50
2024/02/03 04:41:57;;;;;;;10.02;4.57;;;7.90;99.90;;;;;;5067967;28;20055;-50
2024/02/03 04:44:22;;;;;;;11.55;4.40;;;7.90;99.90;;;;;;5066598;28;20025;-50
2024/02/03 04:46:48;;;;;;;9.70;4.10;;;7.90;99.90;;;;;;5067798;28;20036;-50
2024/02/03 04:49:13;;;;;;;11.50;4.57;;;7.90;99.90;;;;;;5050064;28;20029;-50
2024/02/03 04:51:39;;;;;;;8.10;4.00;;;7.90;99.90;;;;;;5066637;28;20525;-50
2024/02/03 04:54:05;;;;;;;7.68;3.85;;;7.90;99.90;;;;;;5067232;28;20207;-50
2024/02/03 04:56:31;;;;;;;10.43;4.43;;;7.90;99.90;;;;;;5067549;28;20021;-50
2024/02/03 04:58:56;;;;;;;12.00;4.63;;;7.80;99.90;;;;;;5032300;28;20057;-50
2024/02/03 05:01:22;;;;;;;7.25;4.30;;;7.80;99.90;;;;;;5049726;28;20032;-50
2024/02/03 05:03:48;;;;;;;10.65;4.35;;;7.80;99.90;;;;;;5067537;28;20469;-50
2024/02/03 05:06:13;;;;;;;7.05;4.75;;;7.80;99.90;;;;;;5066958;28;20025;-50
2024/02/03 05:08:39;;;;;;;9.90;4.25;;;7.80;99.90;;;;;;5066776;28;20053;-50
2024/02/03 05:11:04;;;;;;;12.32;4.75;;;7.80;99.90;;;;;;5066502;28;20061;-50
2024/02/03 05:13:30;;;;;;;7.63;3.85;;;7.80;99.90;;;;;;5067419;28;20036;-50
2024/02/03 05:15:55;;;;;;;10.75;4.65;;;7.70;99.90;;;;;;5067306;28;20029;-50
2024/02/03 05:18:21;;;;;;;7.07;4.25;;;7.70;99.90;;;;;;5067913;28;20086;-50
2024/02/03 05:20:48;;;;;;;7.38;4.20;;;7.70;99.90;;;;;;5051275;28;20021;-50
2024/02/03 05:23:13;;;;;;;12.68;4.38;;;7.70;99.90;;;;;;5066138;28;20025;-50
2024/02/03 05:25:39;;;;;;;7.18;4.20;;;7.80;99.90;;;;;;5067276;28;20025;-50
2024/02/03 05:28:05;;;;;;;11.75;4.35;;;7.70;99.90;;;;;;5049265;28;20056;-50
2024/02/03 05:30:30;;;;;;;7.03;4.22;;;7.70;99.90;;;;;;5065670;28;20033;-50
2024/02/03 05:32:56;;;;;;;9.23;4.05;;;7.70;99.90;;;;;;5065782;28;20504;-50
2024/02/03 05:35:21;;;;;;;6.97;3.75;;;7.70;99.90;;;;;;5065751;28;20080;-50
2024/02/03 05:37:47;;;;;;;8.43;4.20;;;7.70;99.90;;;;;;5065740;28;20044;-50
2024/02/03 05:40:13;;;;;;;8.57;3.75;;;7.70;99.90;;;;;;5065807;28;20028;-50
2024/02/03 05:42:39;;;;;;;9.93;4.65;;;7.60;99.90;;;;;;5049016;28;20025;-50
2024/02/03 05:45:06;;;;;;;12.10;4.30;;;7.60;99.90;;;;;;5066686;28;20084;-50
2024/02/03 05:47:31;;;;;;;8.43;4.10;;;7.60;99.90;;;;;;5048986;28;20033;-50
2024/02/03 05:49:57;;;;;;;7.53;4.53;;;7.60;99.90;;;;;;5048767;28;20577;-50
2024/02/03 05:52:22;;;;;;;9.43;3.80;;;7.60;99.90;;;;;;5065394;28;20021;-50
2024/02/03 05:54:48;;;;;;;9.23;4.10;;;7.60;99.90;;;;;;5066866;28;20032;-50
2024/02/03 05:57:14;;;;;;;7.00;3.58;;;7.60;99.90;;;;;;5066001;28;20029;-50
2024/02/03 05:59:43;;;;;;;8.45;3.78;;;7.60;99.90;;;;;;5066109;28;20028;-50
2024/02/03 06:02:09;;;;;;;7.05;3.70;;;7.60;99.90;;;;;;5049779;28;20028;-50
2024/02/03 06:04:35;;;;;;;7.80;4.03;;;7.60;99.90;;;;;;5065429;28;20025;-50
2024/02/03 06:07:00;;;;;;;9.30;4.47;;;7.60;99.90;;;;;;5065016;28;20025;-50
2024/02/03 06:09:26;;;;;;;7.90;4.03;;;7.60;99.90;;;;;;5064952;28;20033;-50
2024/02/03 06:11:52;;;;;;;9.70;4.32;;;7.60;99.90;;;;;;5066157;28;20079;-50
2024/02/03 06:14:17;;;;;;;9.23;4.10;;;7.60;99.90;;;;;;5066490;28;20037;-50
2024/02/03 06:16:43;;;;;;;9.00;3.63;;;7.60;99.90;;;;;;5067043;28;20040;-50
2024/02/03 06:19:08;;;;;;;6.68;3.92;;;7.60;99.90;;;;;;5066418;28;20032;-50
2024/02/03 06:21:34;;;;;;;10.32;4.20;;;7.60;99.90;;;;;;5064905;28;20088;-50
2024/02/03 06:24:00;;;;;;;10.30;4.68;;;7.60;99.90;;;;;;5065019;28;20025;-50
2024/02/03 06:26:30;;;;;;;6.38;3.88;;;7.60;99.90;;;;;;5066256;28;20025;-50
2024/02/03 06:28:56;;;;;;;12.82;4.75;;;7.50;99.90;;;;;;5066179;28;20021;-50
2024/02/03 06:31:21;;;;;;;9.52;4.32;;;7.60;99.90;;;;;;5064848;28;20051;-50
2024/02/03 06:33:47;;;;;;;5.97;4.32;;;7.50;99.90;;;;;;5064832;28;20033;-50
2024/02/03 06:36:12;;;;;;;11.32;4.22;;;7.50;99.90;;;;;;5065876;28;20043;-50
2024/02/03 06:38:38;;;;;;;10.00;4.22;;;7.50;99.90;;;;;;5064603;28;20037;-50
2024/02/03 06:41:03;;;;;;;9.00;4.50;;;7.50;99.90;;;;;;5065821;28;20089;-50
2024/02/03 06:43:29;;;;;;;15.55;4.38;;;7.50;99.90;;;;;;5064787;28;20056;-50
2024/02/03 06:45:55;;;;;;;11.02;4.43;;;7.50;99.90;;;;;;5064896;28;20056;-50
2024/02/03 06:48:20;;;;;;;7.22;4.20;;;7.50;99.90;;;;;;5065813;28;20056;-51
2024/02/03 06:50:48;;;;;;;18.20;4.63;;;7.50;99.90;;;;;;5065778;28;20040;-50
2024/02/03 06:53:14;;;;;;;17.80;5.00;;;7.50;99.90;;;;;;5065990;28;20052;-50
2024/02/03 06:55:40;;;;;;;22.40;4.68;;;7.50;99.90;;;;;;5064620;28;20358;-50
2024/02/03 06:58:05;;;;;;;21.77;4.72;;;7.50;99.90;;;;;;5064551;28;20052;-50
2024/02/03 07:00:31;;;;;;;10.57;4.20;;;7.50;99.90;;;;;;5064537;28;20033;-50
2024/02/03 07:02:56;;;;;;;18.13;4.97;;;7.50;99.90;;;;;;5065827;28;20029;-50
2024/02/03 07:05:22;;;;;;;25.73;5.07;;;7.50;99.90;;;;;;5065717;28;20107;-51
2024/02/03 07:07:48;;;;;;;40.25;6.53;;;7.50;99.90;;;;;;5065961;28;20017;-50
2024/02/03 07:10:13;;;;;;;30.40;6.28;;;7.50;99.90;;;;;;5064635;28;20029;-50
2024/02/03 07:12:39;;;;;;;32.78;5.78;;;7.50;99.90;;;;;;5065707;28;20040;-50
2024/02/03 07:15:05;;;;;;;33.13;5.60;;;7.50;99.90;;;;;;5048000;28;20048;-50
2024/02/03 07:17:31;;;;;;;24.70;5.38;;;7.50;99.90;;;;;;5066051;28;20028;-50
2024/02/03 07:19:59;;;;;;;31.80;6.10;;;7.50;99.90;;;;;;5068053;28;20481;-50
2024/02/03 07:22:25;;;;;;;24.13;5.28;;;7.50;99.90;;;;;;5068082;28;20028;-50
2024/02/03 07:24:50;;;;;;;66.63;8.55;;;7.50;99.90;;;;;;5068238;28;20025;-50
2024/02/03 07:27:17;;;;;;;86.95;9.48;;;7.50;99.90;;;;;;5069459;28;20025;-50
2024/02/03 07:29:43;;;;;;;81.60;10.57;;;7.50;99.90;;;;;;5069301;28;20033;-50
2024/02/03 07:32:08;;;;;;;52.92;7.93;;;7.50;99.90;;;;;;5051632;28;20028;-50
2024/02/03 07:34:34;;;;;;;53.95;8.23;;;7.50;99.90;;;;;;5068263;28;20025;-50
2024/02/03 07:37:00;;;;;;;47.63;8.32;;;7.50;99.90;;;;;;5067790;28;20037;-50
2024/02/03 07:39:25;;;;;;;47.28;8.00;;;7.50;99.90;;;;;;5067956;28;20029;-50
2024/02/03 07:41:51;;;;;;;51.30;8.27;;;7.50;99.90;;;;;;5068843;28;20116;-50
2024/02/03 07:44:17;;;;;;;36.88;7.30;;;7.50;99.90;;;;;;5069086;28;20043;-48
2024/02/03 07:46:42;;;;;;;57.65;8.38;;;7.50;99.90;;;;;;5069176;28;20032;-50
2024/02/03 07:49:08;;;;;;;46.05;8.02;;;7.50;99.90;;;;;;5069152;28;20476;-50
2024/02/03 07:51:34;;;;;;;39.65;8.27;;;7.50;99.90;;;;;;5068808;28;20037;-50
2024/02/03 07:53:59;;;;;;;31.23;6.93;;;7.50;99.90;;;;;;5067594;28;20029;-50
2024/02/03 07:56:25;;;;;;;34.65;8.43;;;7.50;99.90;;;;;;5067415;28;20103;-50
2024/02/03 07:58:54;;;;;;;30.65;7.25;;;7.50;99.90;;;;;;5068776;28;20032;-50
2024/02/03 08:01:20;;;;;;;42.78;6.82;;;7.50;99.90;;;;;;5050670;28;20033;-50
2024/02/03 08:03:47;;;;;;;39.53;6.35;;;7.50;99.90;;;;;;5067859;28;20023;-50
2024/02/03 08:06:12;;;;;;;41.22;7.70;;;7.50;99.90;;;;;;5068937;28;20037;-50
2024/02/03 08:08:38;;;;;;;44.75;7.60;;;7.50;99.90;;;;;;5067634;28;20389;-50
2024/02/03 08:11:03;;;;;;;40.63;6.80;;;7.50;99.90;;;;;;5067476;28;20044;-50
2024/02/03 08:13:29;;;;;;;33.47;6.80;;;7.50;99.90;;;;;;5068450;28;20059;-50
2024/02/03 08:15:55;;;;;;;32.03;6.57;;;7.50;99.90;;;;;;5068548;28;20029;-50
2024/02/03 08:18:20;;;;;;;37.47;6.55;;;7.50;99.90;;;;;;5068449;28;20037;-50
2024/02/03 08:20:47;;;;;;;25.42;6.53;;;7.40;99.90;;;;;;5067206;28;20040;-50
2024/02/03 08:23:13;;;;;;;32.08;6.60;;;7.40;99.90;;;;;;5068227;28;20029;-50
2024/02/03 08:25:39;;;;;;;32.35;7.03;;;7.40;99.90;;;;;;5068219;28;20467;-50
2024/02/03 08:28:04;;;;;;;31.95;7.07;;;7.40;99.90;;;;;;5066836;28;20051;-50
2024/02/03 08:30:30;;;;;;;35.55;7.13;;;7.40;99.90;;;;;;5066937;28;20037;-50
2024/02/03 08:32:55;;;;;;;30.60;7.18;;;7.50;99.90;;;;;;5066505;28;20021;-50
2024/02/03 08:35:21;;;;;;;37.47;6.32;;;7.50;99.90;;;;;;5066634;28;20056;-50
2024/02/03 08:37:46;;;;;;;29.48;6.55;;;7.50;99.90;;;;;;5067820;28;20033;-50
2024/02/03 08:40:13;;;;;;;32.08;6.30;;;7.50;99.90;;;;;;5066727;28;20021;-50
2024/02/03 08:42:38;;;;;;;19.30;6.07;;;7.50;99.90;;;;;;5067873;28;20108;-50
2024/02/03 08:45:04;;;;;;;25.90;6.65;;;7.40;99.90;;;;;;5066597;28;20022;-50
2024/02/03 08:47:30;;;;;;;31.15;6.82;;;7.40;99.90;;;;;;5033201;28;20040;-50
2024/02/03 08:49:56;;;;;;;31.58;6.00;;;7.40;99.90;;;;;;5049853;28;20116;-50
2024/02/03 08:52:22;;;;;;;27.13;6.10;;;7.50;99.90;;;;;;5033281;28;20021;-50
2024/02/03 08:54:48;;;;;;;22.23;6.30;;;7.50;99.90;;;;;;5066320;28;20040;-51
2024/02/03 08:57:13;;;;;;;18.20;5.85;;;7.50;99.90;;;;;;5066751;28;20021;-50
2024/02/03 08:59:39;;;;;;;27.90;5.95;;;7.50;99.90;;;;;;5049784;28;20033;-50
2024/02/03 09:02:05;;;;;;;23.42;5.40;;;7.50;99.90;;;;;;5066308;28;20040;-50
2024/02/03 09:04:30;;;;;;;26.33;5.97;;;7.50;99.90;;;;;;5050365;28;20052;-50
2024/02/03 09:06:56;;;;;;;24.77;6.22;;;7.50;99.90;;;;;;5065728;28;20136;-50
2024/02/03 09:09:21;;;;;;;22.00;6.32;;;7.50;99.90;;;;;;5066028;28;20047;-50
2024/02/03 09:11:47;;;;;;;24.27;6.28;;;7.50;99.90;;;;;;5063869;28;20060;-50
2024/02/03 09:14:13;;;;;;;24.27;5.60;;;7.50;99.90;;;;;;5064420;28;20088;-50
2024/02/03 09:16:38;;;;;;;28.23;6.28;;;7.40;99.90;;;;;;5063437;28;20029;-50
2024/02/03 09:19:04;;;;;;;22.45;5.80;;;7.50;99.90;;;;;;5063518;28;20059;-50
2024/02/03 09:21:29;;;;;;;19.17;6.22;;;7.50;99.90;;;;;;5064961;28;20056;-51
2024/02/03 09:23:55;;;;;;;37.20;7.18;;;7.50;99.90;;;;;;5063317;28;20060;-50
2024/02/03 09:26:21;;;;;;;40.33;7.32;;;7.50;99.90;;;;;;5065825;28;20021;-50
2024/02/03 09:28:46;;;;;;;86.05;11.23;;;7.50;99.90;;;;;;5064805;28;20024;-50
2024/02/03 09:31:19;;;;;;;72.55;9.00;;;7.50;99.90;;;;;;5064741;28;20051;-50
2024/02/03 09:33:48;;;;;;;56.72;9.25;;;7.50;99.90;;;;;;5066356;28;20031;-50
2024/02/03 09:36:13;;;;;;;73.18;10.80;;;7.60;99.90;;;;;;5066985;28;20366;-50
2024/02/03 09:38:40;;;;;;;86.85;10.63;;;7.60;99.90;;;;;;5066915;28;20039;-50
2024/02/03 09:41:06;;;;;;;101.85;12.57;;;7.60;99.90;;;;;;5048705;28;20112;-50
2024/02/03 09:43:32;;;;;;;83.82;12.27;;;7.70;99.90;;;;;;5064647;28;20025;-50
2024/02/03 09:45:58;;;;;;;109.10;14.50;;;7.70;99.90;;;;;;5064545;28;20035;-50
2024/02/03 09:48:23;;;;;;;136.35;16.75;;;7.70;99.90;;;;;;5064773;28;20052;-50
2024/02/03 09:50:49;;;;;;;119.22;16.10;;;7.70;99.90;;;;;;5065256;28;20036;-50
2024/02/03 09:53:15;;;;;;;99.20;13.27;;;7.70;99.90;;;;;;5066467;28;20025;-50
2024/02/03 09:55:41;;;;;;;115.90;15.32;;;7.80;99.90;;;;;;5073570;28;20082;-50
2024/02/03 09:58:07;;;;;;;108.15;14.43;;;7.80;99.90;;;;;;5082891;28;20036;-50
2024/02/03 10:00:34;;;;;;;137.82;16.80;;;7.80;99.90;;;;;;5067644;28;20570;-50
2024/02/03 10:02:59;;;;;;;132.40;16.50;;;7.90;99.90;;;;;;5078095;28;20035;-50
2024/02/03 10:05:29;;;;;;;145.48;16.85;;;7.90;99.90;;;;;;5068510;28;20033;-50
2024/02/03 10:08:05;;;;;;;187.30;19.42;;;7.90;99.90;;;;;;5067071;28;20045;-50
2024/02/03 10:10:33;;;;;;;156.95;19.50;;;7.90;99.90;;;;;;5064234;28;20040;-50
2024/02/03 10:13:07;;;;;;;129.93;16.92;;;8.00;99.90;;;;;;5065574;28;20032;-50
2024/02/03 10:15:33;;;;;;;148.60;19.30;;;8.00;99.90;;;;;;5064436;28;20043;-50
2024/02/03 10:17:59;;;;;;;158.95;20.45;;;8.00;99.90;;;;;;5056084;28;20036;-50
2024/02/03 10:20:25;;;;;;;180.05;21.60;;;8.00;99.90;;;;;;5076353;28;20033;-50
2024/02/03 10:22:51;;;;;;;161.15;20.98;;;8.00;99.90;;;;;;5075320;28;20104;-50
2024/02/03 10:25:20;;;;;;;202.90;22.85;;;8.10;99.90;;;;;;5076959;28;20040;-50
2024/02/03 10:27:46;;;;;;;191.10;25.02;;;8.10;99.90;;;;;;5064394;28;20029;-50
2024/02/03 10:30:19;;;;;;;204.00;23.63;;;8.10;99.90;;;;;;5066746;28;20071;-50
2024/02/03 10:32:44;;;;;;;193.30;24.33;;;8.10;99.90;;;;;;5073186;28;20526;-50
2024/02/03 10:35:10;;;;;;;182.20;24.17;;;8.10;99.90;;;;;;5066197;28;20025;-51
2024/02/03 10:37:37;;;;;;;223.48;24.40;;;8.20;99.90;;;;;;5080602;28;20120;-50
2024/02/03 10:40:03;;;;;;;179.65;24.92;;;8.30;99.90;;;;;;5069794;28;20063;-50
2024/02/03 10:42:29;;;;;;;232.13;25.35;;;8.20;99.90;;;;;;5077618;28;20447;-50
2024/02/03 10:44:55;;;;;;;218.32;25.15;;;8.20;99.90;;;;;;5068089;28;20056;-50
2024/02/03 10:47:21;;;;;;;213.15;25.58;;;8.30;99.90;;;;;;5079109;28;20035;-50
2024/02/03 10:49:47;;;;;;;203.55;27.50;;;8.30;99.90;;;;;;5066289;28;20108;-50
2024/02/03 10:52:13;;;;;;;205.65;24.98;;;8.30;99.90;;;;;;5057603;28;20041;-51
2024/02/03 10:54:40;;;;;;;212.07;24.98;;;8.40;99.90;;;;;;5072691;28;20029;-50
2024/02/03 10:57:06;;;;;;;220.10;24.52;;;8.40;99.90;;;;;;5069393;28;20032;-50
2024/02/03 10:59:31;;;;;;;213.00;24.88;;;8.40;99.90;;;;;;5078096;28;20021;-50
2024/02/03 11:01:57;;;;;;;199.50;23.88;;;8.40;99.90;;;;;;5068818;28;20037;-50
2024/02/03 11:04:22;;;;;;;192.27;24.98;;;8.50;99.90;;;;;;5096401;28;20031;-50
2024/02/03 11:06:48;;;;;;;218.00;24.50;;;8.50;99.90;;;;;;5074255;28;20542;-50
2024/02/03 11:09:20;;;;;;;199.32;24.80;;;8.50;99.90;;;;;;5070109;28;20025;-50
2024/02/03 11:11:47;;;;;;;218.85;23.98;;;8.50;99.90;;;;;;5072125;28;20511;-50
2024/02/03 11:14:17;;;;;;;216.75;23.90;;;8.60;99.90;;;;;;5073418;28;20032;-50
2024/02/03 11:16:44;;;;;;;189.10;23.77;;;8.50;99.90;;;;;;5057580;28;20493;-50
2024/02/03 11:19:11;;;;;;;170.05;23.00;;;8.60;99.90;;;;;;5077028;28;20032;-50
2024/02/03 11:21:43;;;;;;;234.95;22.05;;;8.60;99.90;;;;;;5071987;28;20033;-50
2024/02/03 11:24:09;;;;;;;201.02;22.48;;;8.60;99.90;;;;;;5065851;28;20299;-50
2024/02/03 11:26:38;;;;;;;206.07;22.20;;;8.70;99.90;;;;;;5068357;28;20045;-50
2024/02/03 11:29:04;;;;;;;220.68;26.88;;;8.70;99.90;;;;;;5050347;28;20037;-50
2024/02/03 11:31:32;;;;;;;135.95;21.58;;;8.70;99.90;;;;;;5073255;28;20056;-50
2024/02/03 11:33:58;;;;;;;230.10;23.50;;;8.70;99.90;;;;;;5058082;28;20080;-50
2024/02/03 11:36:24;;;;;;;183.20;22.50;;;8.70;99.90;;;;;;5067838;28;20048;-50
2024/02/03 11:38:52;;;;;;;238.93;24.73;;;8.70;99.90;;;;;;5079374;28;20054;-50
2024/02/03 11:41:21;;;;;;;185.93;24.45;;;8.70;99.90;;;;;;5068101;28;20175;-50
2024/02/03 11:43:47;;;;;;;178.80;21.15;;;8.70;99.90;;;;;;5056426;28;20053;-50
2024/02/03 11:46:12;;;;;;;195.88;23.35;;;8.80;99.90;;;;;;5062302;28;20032;-50
2024/02/03 11:48:39;;;;;;;195.68;23.27;;;8.80;99.90;;;;;;5066671;28;20025;-50
2024/02/03 11:51:05;;;;;;;168.15;22.25;;;8.80;99.90;;;;;;5066042;28;20043;-50
2024/02/03 11:53:30;;;;;;;180.50;23.08;;;8.80;99.90;;;;;;5067938;28;20036;-50
2024/02/03 11:55:56;;;;;;;191.80;24.00;;;8.80;99.90;;;;;;5026280;28;20033;-50
2024/02/03 11:58:23;;;;;;;191.23;22.95;;;8.90;99.90;;;;;;5074682;28;20039;-50
2024/02/03 12:01:00;;;;;;;141.50;19.77;;;8.90;99.90;;;;;;5063268;28;20047;-50
2024/02/03 12:03:26;;;;;;;189.15;22.77;;;8.90;99.90;;;;;;5065464;28;20032;-50
2024/02/03 12:05:51;;;;;;;183.00;21.73;;;8.90;99.90;;;;;;5065018;28;20037;-50
2024/02/03 12:08:17;;;;;;;179.75;22.77;;;8.90;99.90;;;;;;5048278;28;20056;-50
2024/02/03 12:10:42;;;;;;;178.52;21.55;;;8.90;99.90;;;;;;5029182;28;20029;-50
2024/02/03 12:13:08;;;;;;;190.38;21.52;;;9.00;99.90;;;;;;5062203;28;20036;-50
2024/02/03 12:15:34;;;;;;;188.52;21.45;;;8.90;99.90;;;;;;5068687;28;20083;-50
2024/02/03 12:18:03;;;;;;;183.75;20.98;;;9.00;99.90;;;;;;5067410;28;20017;-49
2024/02/03 12:20:29;;;;;;;193.98;21.42;;;9.00;99.90;;;;;;5063561;28;20029;-50
2024/02/03 12:22:57;;;;;;;140.45;18.80;;;9.00;99.90;;;;;;5063334;28;20021;-50
2024/02/03 12:25:23;;;;;;;123.18;19.08;;;9.00;99.90;;;;;;5048386;28;20028;-50
2024/02/03 12:27:48;;;;;;;132.25;16.60;;;9.00;99.90;;;;;;5063547;28;20025;-50
2024/02/03 12:30:23;;;;;;;134.75;16.42;;;9.00;99.90;;;;;;5061855;28;20040;-50
2024/02/03 12:32:49;;;;;;;123.50;16.60;;;9.10;99.90;;;;;;5065055;28;20035;-51
2024/02/03 12:35:15;;;;;;;318.40;28.23;;;9.10;99.90;;;;;;5067600;28;20064;-50
2024/02/03 12:37:40;;;;;;;147.63;19.73;;;9.10;99.90;;;;;;5063457;28;20033;-50